This is the latest recevied weather packets stored in our database for station/object YO4TNV-15. If no packets are shown the sender has not sent any weather packets the latest 10 day(s).
| Time | Temp. | Humidity | Pressure | Rain* | Wind** | Luminosity | Snow |
|---|---|---|---|---|---|---|---|
| 1777530137 | 10.56° C | 40% | 1012.4 hPa | - | - | - | - |
| 1777530126 | 10.56° C | 40% | 1012.4 hPa | - | - | - | - |
| 1777529238 | 7.78° C | 49% | 1012.5 hPa | - | - | - | - |
| 1777529225 | 7.78° C | 49% | 1012.5 hPa | - | - | - | - |
| 1777528337 | 6.67° C | 51% | 1012.4 hPa | - | - | - | - |
| 1777528325 | 6.67° C | 51% | 1012.4 hPa | - | - | - | - |
| 1777527433 | 7.22° C | 47% | 1012.2 hPa | - | - | - | - |
| 1777527425 | 7.22° C | 47% | 1012.2 hPa | - | - | - | - |
| 1777526537 | 7.22° C | 46% | 1012.3 hPa | - | - | - | - |
| 1777526525 | 7.22° C | 46% | 1012.3 hPa | - | - | - | - |
| 1777525652 | 6.67° C | 48% | 1012.2 hPa | - | - | - | - |
| 1777525642 | 6.67° C | 48% | 1012.2 hPa | - | - | - | - |
| 1777524753 | 6.11° C | 50% | 1012.1 hPa | - | - | - | - |
| 1777524741 | 6.11° C | 50% | 1012.1 hPa | - | - | - | - |
| 1777523852 | 6.67° C | 47% | 1012.1 hPa | - | - | - | - |
| 1777523840 | 6.67° C | 47% | 1012.1 hPa | - | - | - | - |
| 1777522953 | 7.78° C | 43% | 1012 hPa | - | - | - | - |
| 1777522940 | 7.78° C | 43% | 1012 hPa | - | - | - | - |
| 1777522049 | 7.22° C | 45% | 1011.9 hPa | - | - | - | - |
| 1777522040 | 7.22° C | 45% | 1011.9 hPa | - | - | - | - |
| 1777521139 | 6.67° C | 47% | 1011.8 hPa | - | - | - | - |
| 1777520248 | 7.78° C | 45% | 1011.6 hPa | - | - | - | - |
| 1777520239 | 7.78° C | 45% | 1011.6 hPa | - | - | - | - |
| 1777519339 | 5.56° C | 50% | 1011.5 hPa | - | - | - | - |
| 1777518447 | 5.56° C | 51% | 1011.4 hPa | - | - | - | - |
* Rain since midnight (hover to see other rain measurements)
** Current wind speed in m/s (hover to see current wind gust speed)